• Join FlightAware (Why Join?)
  • Login
  • US Flag 
12:24PM EDT


 

Airport Tracker/Info


-or-


 

Live Flight TrackerFlight Track Log ✈ SKW5631 ✈ 07-May-2014 ✈ KSFO - KBUR

Flight Track Log - Related Links

Times and Time Zones

All times are in EDT time to prevent confusion due to time zone crossing. See the SKW5631 flight status page for this flight to view local times or setup timezone preferences in your user account.

Time Position Orientation Groundspeed Altitude Reporting Facility
EDT Latitude Longitude Course Direction KTS MPH feet Rate Location/Type
09:34PM 37.6286 -122.3958 133° Southeast 149 171 2,000  Level Oakland Center
09:35PM 37.6575 -122.4592 300° West 199 229 5,000 3,420 Climbing Oakland Center
09:36PM 37.4173 -122.3186 113° Southeast  Level FlightAware Approximate
09:36PM 37.6664 -122.5372 278° West 237 273 8,900  Level Oakland Center
09:37PM 37.3165 -122.1865 136° Southeast  Level FlightAware Approximate
09:37PM 37.5942 -122.5369 180° South 281 323 12,100  Level Oakland Center
09:38PM 37.2218 -122.0481 135° Southeast  Level FlightAware Approximate
09:38PM 37.5256 -122.4661 141° Southeast 319 367 14,000  Level Oakland Center
09:39PM 37.1207 -121.9164 133° Southeast  Level FlightAware Approximate
09:39PM 37.4525 -122.3836 138° Southeast 353 406 15,800  Level Oakland Center
09:40PM 37.3725 -122.2953 139° Southeast 378 435 17,700 1,740 Climbing Oakland Center
09:41PM 37.2889 -122.2033 139° Southeast 395 455 19,400 1,800 Climbing Oakland Center
09:42PM 37.1861 -122.0911 139° Southeast 406 467 21,500 1,920 Climbing Oakland Center
09:43PM 37.1006 -121.9953 138° Southeast 410 472 23,300 1,560 Climbing Oakland Center
09:44PM 37.0125 -121.8994 139° Southeast 415 478 24,800 1,260 Climbing Oakland Center
09:45PM 36.9219 -121.8036 140° Southeast 428 493 26,000 1,080 Climbing Oakland Center
09:46PM 36.8278 -121.7058 140° Southeast 439 505 27,100 1,020 Climbing Oakland Center
09:47PM 36.7383 -121.6078 139° Southeast 449 517 28,100 840 Climbing Oakland Center
09:48PM 36.6425 -121.5036 139° Southeast 456 525 28,900 660 Climbing Oakland Center
09:49PM 36.5239 -121.3758 139° Southeast 467 537 29,500 540 Climbing Oakland Center
09:50PM 36.4242 -121.2661 138° Southeast 481 554 30,100 480 Climbing Oakland Center
09:51PM 36.3214 -121.1575 140° Southeast 483 556 30,600 480 Climbing Oakland Center
09:52PM 36.2167 -121.0461 139° Southeast 491 565 31,100 480 Climbing Oakland Center
09:53PM 36.1133 -120.9339 139° Southeast 497 572 31,600 480 Climbing Oakland Center
09:54PM 36.0097 -120.8214 139° Southeast 497 572 32,100 480 Climbing Oakland Center
09:55PM 35.9031 -120.7092 140° Southeast 498 573 32,600 420 Climbing Oakland Center
09:56PM 35.7964 -120.5978 140° Southeast 499 574 33,000 180 Climbing Oakland Center
09:57PM 35.6883 -120.4839 139° Southeast 504 580 33,000 -60 Level Oakland Center
09:58PM 35.5739 -120.3656 140° Southeast 514 592 32,900 -660 Descending Los Angeles Center
09:59PM 35.4633 -120.2531 140° Southeast 514 592 31,800 -1,020 Descending Los Angeles Center
10:00PM 35.3567 -120.1389 139° Southeast 512 589 30,900 -1,020 Descending Los Angeles Center
10:01PM 35.2453 -120.0242 140° Southeast 509 586 29,800 -1,740 Descending Los Angeles Center
10:02PM 35.1381 -119.9136 140° Southeast 505 581 27,400 -2,640 Descending Los Angeles Center
10:03PM 35.0281 -119.7786 135° Southeast 466 536 24,400 -2,220 Descending Los Angeles Center
10:04PM 34.9486 -119.6689 131° Southeast 440 506 22,900 -1,620 Descending Los Angeles Center
10:05PM 34.8686 -119.5631 133° Southeast 431 496 21,100 -1,860 Descending Los Angeles Center
10:06PM 34.7889 -119.4564 132° Southeast 431 496 19,100 -1,980 Descending Los Angeles Center
10:07PM 34.7133 -119.3550 132° Southeast 418 481 17,100 -1,860 Descending Los Angeles Center
10:08PM 34.6400 -119.2581 133° Southeast 402 463 15,400 -2,160 Descending Los Angeles Center
10:09PM 34.5697 -119.1328 124° Southeast 377 434 12,700 -2,160 Descending Los Angeles Center
10:10PM 34.5144 -119.0239 122° Southeast 376 433 11,000 -1,020 Descending Los Angeles Center
10:11PM 34.4419 -118.9603 144° Southeast 320 368 10,600 -720 Descending Los Angeles Center
10:12PM 34.3722 -118.9006 145° Southeast 309 356 9,600 -1,380 Descending Los Angeles Center
10:14PM 34.3247 -118.8167 124° Southeast 298 343 7,800 -1,800 Descending Los Angeles Center
10:15PM 34.2792 -118.7442 127° Southeast 272 313 6,000 -1,380 Descending Los Angeles Center
10:16PM 34.2367 -118.6708 125° Southeast 271 312 5,000 -720 Descending Los Angeles Center
10:17PM 34.2017 -118.6050 123° Southeast 214 246 4,600 -600 Descending Los Angeles Center
10:18PM 34.2017 -118.5464 90° East 186 214 3,800 -840 Descending Los Angeles Center
10:19PM 34.2000 -118.4903 92° East 176 203 3,000 -900 Descending Los Angeles Center
10:20PM 34.1997 -118.4403 90° East 164 189 2,000 -900 Descending Los Angeles Center
10:21PM 34.1989 -118.3961 91° East 148 170 1,200 -480 Descending Los Angeles Center
10:22PM 34.1981 -118.3522 91° East 146 168 1,100 -120 Descending Los Angeles Center